createdAt,value
2023-01-30T00:01:28.367Z,16.27
2023-01-30T00:03:55.263Z,16.67
2023-01-30T00:06:22.468Z,12.43
2023-01-30T00:08:49.309Z,11.90
2023-01-30T00:11:17.873Z,13.73
2023-01-30T00:13:44.778Z,8.55
2023-01-30T00:16:12.008Z,8.25
2023-01-30T00:18:40.080Z,9.40
2023-01-30T00:21:08.770Z,11.32
2023-01-30T00:23:36.296Z,10.73
2023-01-30T00:26:04.303Z,13.70
2023-01-30T00:28:31.620Z,9.60
2023-01-30T00:30:58.456Z,11.25
2023-01-30T00:33:26.885Z,10.05
2023-01-30T00:35:55.602Z,9.52
2023-01-30T00:38:23.560Z,12.52
2023-01-30T00:40:50.873Z,22.80
2023-01-30T00:43:48.829Z,20.33
2023-01-30T00:46:48.724Z,24.73
2023-01-30T00:49:15.806Z,17.85
2023-01-30T00:51:42.825Z,11.20
2023-01-30T00:54:09.902Z,15.48
2023-01-30T00:56:36.703Z,12.10
2023-01-30T00:59:03.516Z,12.43
2023-01-30T01:01:30.357Z,11.80
2023-01-30T01:03:57.185Z,19.50
2023-01-30T01:06:23.870Z,13.07
2023-01-30T01:08:50.718Z,12.95
2023-01-30T01:11:24.711Z,10.30
2023-01-30T01:13:59.350Z,9.85
2023-01-30T01:16:27.298Z,10.20
2023-01-30T01:18:54.714Z,9.65
2023-01-30T01:21:22.770Z,7.85
2023-01-30T01:23:53.886Z,10.73
2023-01-30T01:26:20.897Z,9.77
2023-01-30T01:28:47.893Z,11.32
2023-01-30T01:31:16.889Z,11.60
2023-01-30T01:33:43.649Z,16.58
2023-01-30T01:36:10.683Z,18.92
2023-01-30T01:38:37.734Z,10.90
2023-01-30T01:41:10.063Z,16.35
2023-01-30T01:43:39.752Z,13.95
2023-01-30T01:46:18.372Z,13.70
2023-01-30T01:48:49.174Z,14.18
2023-01-30T01:51:20.564Z,10.15
2023-01-30T01:53:59.425Z,11.18
2023-01-30T01:56:26.943Z,11.98
2023-01-30T01:59:10.491Z,11.95
2023-01-30T02:01:37.258Z,9.52
2023-01-30T02:04:09.997Z,12.25
2023-01-30T02:06:39.362Z,10.40
2023-01-30T02:09:10.236Z,9.07
2023-01-30T02:11:51.069Z,11.75
2023-01-30T02:14:19.705Z,11.43
2023-01-30T02:16:47.499Z,12.00
2023-01-30T02:19:31.649Z,11.32
2023-01-30T02:22:32.213Z,17.70
2023-01-30T02:25:21.134Z,18.70
2023-01-30T02:28:25.618Z,18.17
2023-01-30T02:31:05.997Z,14.68
2023-01-30T02:33:53.134Z,20.27
2023-01-30T02:36:28.968Z,22.13
2023-01-30T02:39:14.519Z,19.05
2023-01-30T02:41:48.634Z,23.52
2023-01-30T02:44:30.371Z,18.55
2023-01-30T02:47:23.665Z,19.63
2023-01-30T02:50:07.778Z,17.52
2023-01-30T02:52:35.854Z,17.60
2023-01-30T02:55:09.236Z,19.98
2023-01-30T02:57:36.072Z,18.67
2023-01-30T03:00:04.986Z,15.38
2023-01-30T03:02:50.707Z,12.20
2023-01-30T03:05:48.828Z,15.30
2023-01-30T03:08:58.862Z,16.65
2023-01-30T03:11:33.576Z,13.05
2023-01-30T03:14:14.692Z,13.65
2023-01-30T03:16:41.964Z,14.32
2023-01-30T03:19:13.593Z,11.93
2023-01-30T03:21:42.355Z,9.15
2023-01-30T03:24:09.173Z,11.02
2023-01-30T03:26:40.918Z,12.73
2023-01-30T03:29:07.701Z,15.02
2023-01-30T03:31:34.482Z,11.40
2023-01-30T03:34:01.346Z,11.15
2023-01-30T03:36:29.464Z,12.48
2023-01-30T03:38:56.497Z,11.63
2023-01-30T03:41:23.656Z,11.30
2023-01-30T03:43:50.461Z,15.75
2023-01-30T03:46:17.300Z,12.25
2023-01-30T03:48:44.119Z,12.68
2023-01-30T03:51:12.603Z,12.52
2023-01-30T03:53:39.391Z,12.95
2023-01-30T03:56:06.295Z,10.77
2023-01-30T03:58:35.252Z,9.75
2023-01-30T04:01:14.667Z,13.73
2023-01-30T04:03:42.223Z,10.52
2023-01-30T04:06:09.015Z,13.32
2023-01-30T04:08:35.788Z,9.88
2023-01-30T04:11:03.567Z,12.57
2023-01-30T04:13:30.368Z,12.68
2023-01-30T04:16:16.691Z,16.95
2023-01-30T04:19:01.991Z,13.38
2023-01-30T04:21:31.954Z,11.40
2023-01-30T04:23:58.848Z,14.90
2023-01-30T04:26:25.699Z,11.32
2023-01-30T04:28:52.664Z,14.45
2023-01-30T04:31:19.501Z,10.18
2023-01-30T04:34:03.917Z,12.98
2023-01-30T04:36:30.931Z,12.18
2023-01-30T04:38:58.326Z,12.15
2023-01-30T04:41:26.222Z,16.73
2023-01-30T04:43:57.495Z,15.95
2023-01-30T04:46:50.591Z,11.20
2023-01-30T04:49:17.694Z,14.68
2023-01-30T04:51:44.877Z,15.05
2023-01-30T04:54:11.734Z,12.82
2023-01-30T04:56:38.452Z,11.75
2023-01-30T04:59:06.371Z,16.20
2023-01-30T05:01:39.321Z,16.15
2023-01-30T05:04:07.483Z,14.95
2023-01-30T05:06:35.267Z,14.10
2023-01-30T05:09:03.121Z,10.48
2023-01-30T05:11:30.573Z,11.63
2023-01-30T05:13:57.457Z,11.80
2023-01-30T05:16:24.615Z,10.85
2023-01-30T05:18:51.741Z,12.55
2023-01-30T05:21:27.994Z,13.52
2023-01-30T05:23:56.382Z,11.63
2023-01-30T05:26:23.786Z,13.38
2023-01-30T05:28:57.865Z,17.05
2023-01-30T05:31:25.404Z,16.00
2023-01-30T05:33:52.687Z,12.90
2023-01-30T05:36:21.329Z,14.30
2023-01-30T05:38:48.144Z,21.02
2023-01-30T05:41:16.688Z,19.88
2023-01-30T05:43:44.175Z,18.85
2023-01-30T05:46:13.514Z,13.70
2023-01-30T05:48:40.639Z,12.25
2023-01-30T05:51:15.775Z,14.13
2023-01-30T05:53:42.522Z,12.18
2023-01-30T05:56:09.486Z,15.05
2023-01-30T05:58:36.193Z,15.45
2023-01-30T06:01:05.633Z,12.25
2023-01-30T06:03:33.035Z,17.15
2023-01-30T06:06:02.184Z,13.35
2023-01-30T06:08:29.531Z,14.95
2023-01-30T06:11:02.464Z,14.75
2023-01-30T06:13:29.571Z,14.45
2023-01-30T06:15:56.383Z,16.27
2023-01-30T06:18:23.300Z,12.70
2023-01-30T06:20:51.400Z,16.13
2023-01-30T06:23:18.999Z,16.13
2023-01-30T06:25:49.889Z,16.83
2023-01-30T06:28:17.922Z,15.45
2023-01-30T06:30:44.788Z,21.45
2023-01-30T06:33:11.986Z,20.13
2023-01-30T06:35:39.516Z,18.15
2023-01-30T06:38:06.804Z,21.38
2023-01-30T06:40:33.575Z,15.57
2023-01-30T06:43:00.409Z,15.02
2023-01-30T06:45:27.168Z,13.23
2023-01-30T06:47:55.729Z,14.40
2023-01-30T06:50:28.286Z,16.55
2023-01-30T06:52:55.513Z,13.93
2023-01-30T06:55:25.161Z,16.98
2023-01-30T06:58:04.622Z,20.40
2023-01-30T07:00:31.724Z,20.30
2023-01-30T07:02:58.845Z,18.08
2023-01-30T07:05:26.512Z,18.40
2023-01-30T07:07:53.278Z,13.68
2023-01-30T07:10:20.202Z,13.45
2023-01-30T07:12:48.130Z,18.73
2023-01-30T07:15:15.157Z,14.88
2023-01-30T07:17:42.128Z,17.73
2023-01-30T07:20:10.468Z,15.50
2023-01-30T07:22:37.383Z,19.10
2023-01-30T07:25:04.500Z,11.55
2023-01-30T07:27:31.355Z,14.43
2023-01-30T07:29:58.115Z,17.48
2023-01-30T07:32:25.019Z,17.38
2023-01-30T07:34:51.817Z,19.23
2023-01-30T07:37:18.549Z,17.88
2023-01-30T07:39:45.296Z,21.08
2023-01-30T07:42:12.025Z,22.70
2023-01-30T07:44:39.038Z,34.60
2023-01-30T07:47:05.816Z,41.03
2023-01-30T07:49:32.719Z,40.72
2023-01-30T07:51:59.455Z,29.10
2023-01-30T07:54:26.816Z,23.25
2023-01-30T07:56:53.518Z,26.13
2023-01-30T07:59:20.328Z,41.75
2023-01-30T08:01:47.079Z,31.75
2023-01-30T08:04:13.921Z,31.65
2023-01-30T08:06:40.662Z,29.35
2023-01-30T08:09:07.770Z,38.25
2023-01-30T08:11:35.174Z,31.52
2023-01-30T08:14:02.481Z,28.30
2023-01-30T08:16:29.294Z,28.20
2023-01-30T08:18:56.128Z,28.65
2023-01-30T08:21:22.850Z,25.08
2023-01-30T08:23:49.664Z,27.75
2023-01-30T08:26:16.551Z,39.42
2023-01-30T08:28:43.467Z,33.38
2023-01-30T08:31:14.887Z,25.75
2023-01-30T08:33:41.999Z,27.33
2023-01-30T08:36:09.397Z,36.22
2023-01-30T08:38:36.405Z,28.80
2023-01-30T08:41:05.613Z,28.23
2023-01-30T08:43:32.394Z,33.72
2023-01-30T08:45:59.188Z,32.35
2023-01-30T08:48:28.167Z,35.42
2023-01-30T08:50:56.557Z,33.08
2023-01-30T08:53:23.619Z,32.97
2023-01-30T08:55:53.864Z,24.98
2023-01-30T08:58:21.922Z,32.25
2023-01-30T09:00:50.323Z,29.40
2023-01-30T09:03:25.195Z,27.08
2023-01-30T09:05:56.277Z,24.35
2023-01-30T09:08:23.187Z,27.20
2023-01-30T09:10:49.915Z,24.92
2023-01-30T09:13:19.875Z,30.00
2023-01-30T09:15:46.690Z,37.45
2023-01-30T09:18:13.398Z,44.67
2023-01-30T09:20:40.192Z,53.17
2023-01-30T09:23:06.955Z,43.08
2023-01-30T09:25:33.735Z,49.42
2023-01-30T09:28:00.548Z,38.38
2023-01-30T09:30:27.466Z,40.53
2023-01-30T09:32:54.317Z,30.83
2023-01-30T09:35:21.121Z,32.95
2023-01-30T09:37:49.860Z,33.88
2023-01-30T09:40:27.166Z,33.97
2023-01-30T09:43:25.950Z,32.47
2023-01-30T09:46:01.227Z,34.78
2023-01-30T09:48:38.012Z,37.17
2023-01-30T09:51:48.042Z,33.05
2023-01-30T09:54:31.167Z,39.92
2023-01-30T09:57:22.570Z,31.35
2023-01-30T10:00:17.645Z,35.63
2023-01-30T10:03:00.077Z,28.20
2023-01-30T10:05:57.219Z,30.83
2023-01-30T10:08:37.489Z,31.02
2023-01-30T10:11:16.140Z,25.85
2023-01-30T10:14:04.532Z,28.25
2023-01-30T10:16:40.133Z,26.45
2023-01-30T10:19:26.136Z,30.55
2023-01-30T10:22:26.552Z,31.17
2023-01-30T10:25:14.417Z,39.70
2023-01-30T10:27:50.600Z,35.80
2023-01-30T10:30:18.474Z,38.38
2023-01-30T10:32:55.928Z,38.92
2023-01-30T10:38:05.460Z,39.67
2023-01-30T10:40:52.408Z,38.42
2023-01-30T10:43:22.179Z,44.53
2023-01-30T10:45:58.002Z,42.97
2023-01-30T10:48:43.621Z,37.05
2023-01-30T10:51:42.543Z,43.60
2023-01-30T10:54:27.629Z,43.53
2023-01-30T10:57:40.032Z,47.47
2023-01-30T11:00:23.601Z,48.88
2023-01-30T11:03:24.979Z,33.60
2023-01-30T11:05:56.406Z,31.10
2023-01-30T11:08:29.197Z,30.40
2023-01-30T11:10:57.044Z,33.60
2023-01-30T11:13:34.374Z,32.25
2023-01-30T11:16:06.783Z,32.55
2023-01-30T11:19:17.648Z,35.53
2023-01-30T11:21:32.040Z,32.47
2023-01-30T11:24:14.506Z,35.40
2023-01-30T11:26:47.277Z,31.95
2023-01-30T11:29:23.590Z,31.92
2023-01-30T11:31:51.588Z,34.75
2023-01-30T11:34:20.785Z,38.90
2023-01-30T11:36:48.793Z,33.83
2023-01-30T11:39:17.628Z,68.97
2023-01-30T11:41:58.785Z,39.33
2023-01-30T11:44:30.767Z,39.38
2023-01-30T11:47:04.454Z,35.50
2023-01-30T11:49:46.899Z,28.92
2023-01-30T11:52:36.906Z,27.67
2023-01-30T11:55:11.258Z,25.25
2023-01-30T11:57:45.421Z,30.13
2023-01-30T12:00:25.024Z,26.73
2023-01-30T12:02:54.161Z,22.55
2023-01-30T12:05:34.775Z,29.88
2023-01-30T12:08:41.734Z,30.98
2023-01-30T12:11:42.202Z,27.27
2023-01-30T12:14:19.674Z,26.55
2023-01-30T12:17:12.115Z,30.63
2023-01-30T12:19:57.332Z,30.33
2023-01-30T12:22:46.016Z,31.42
2023-01-30T12:25:36.880Z,30.77
2023-01-30T12:28:14.364Z,30.42
2023-01-30T12:30:56.685Z,33.10
2023-01-30T12:33:28.772Z,38.72
2023-01-30T12:36:22.177Z,33.97
2023-01-30T12:39:25.847Z,40.33
2023-01-30T12:42:25.902Z,28.65
2023-01-30T12:44:58.749Z,32.92
2023-01-30T12:47:50.546Z,27.48
2023-01-30T12:50:29.526Z,22.33
2023-01-30T12:53:04.416Z,21.67
2023-01-30T12:56:01.693Z,14.75
2023-01-30T12:59:11.627Z,8.13
2023-01-30T13:01:48.144Z,8.40
2023-01-30T13:04:29.831Z,6.68
2023-01-30T13:07:28.179Z,11.65
2023-01-30T13:10:09.817Z,12.27
2023-01-30T13:12:39.321Z,12.15
2023-01-30T13:15:27.460Z,8.60
2023-01-30T13:18:15.671Z,8.38
2023-01-30T13:20:54.618Z,5.68
2023-01-30T13:23:39.170Z,5.78
2023-01-30T13:26:10.788Z,8.55
2023-01-30T13:28:45.847Z,7.10
2023-01-30T13:31:16.831Z,6.65
2023-01-30T13:36:24.670Z,21.20
2023-01-30T13:39:03.530Z,26.20
2023-01-30T13:41:35.913Z,23.77
2023-01-30T13:44:16.927Z,20.08
2023-01-30T13:46:45.170Z,22.13
2023-01-30T13:49:46.772Z,20.83
2023-01-30T13:52:37.633Z,17.45
2023-01-30T13:55:33.492Z,18.15
2023-01-30T13:58:41.547Z,18.90
2023-01-30T14:01:08.391Z,22.73
2023-01-30T14:03:35.324Z,21.63
2023-01-30T14:06:06.108Z,22.08
2023-01-30T14:08:53.493Z,19.20
2023-01-30T14:11:31.065Z,22.40
2023-01-30T14:14:03.431Z,24.58
2023-01-30T14:16:46.081Z,21.27
2023-01-30T14:19:22.007Z,20.58
2023-01-30T14:21:57.722Z,18.52
2023-01-30T14:24:31.770Z,18.23
2023-01-30T14:26:58.466Z,20.00
2023-01-30T14:29:43.169Z,18.88
2023-01-30T14:32:14.464Z,10.25
2023-01-30T14:34:45.126Z,7.53
2023-01-30T14:37:42.096Z,10.13
2023-01-30T14:40:21.103Z,10.02
2023-01-30T14:43:12.865Z,9.73
2023-01-30T14:45:47.331Z,10.48
2023-01-30T14:48:44.473Z,10.32
2023-01-30T14:51:39.669Z,9.20
2023-01-30T14:54:13.320Z,8.75
2023-01-30T14:56:49.536Z,12.10
2023-01-30T14:59:16.255Z,13.20
2023-01-30T15:01:57.659Z,16.58
2023-01-30T15:04:27.846Z,16.85
2023-01-30T15:06:55.386Z,13.93
2023-01-30T15:09:28.288Z,17.52
2023-01-30T15:12:21.139Z,21.45
2023-01-30T15:15:18.851Z,17.27
2023-01-30T15:18:09.026Z,23.45
2023-01-30T15:20:54.415Z,20.20
2023-01-30T15:23:56.408Z,22.88
2023-01-30T15:27:02.317Z,22.92
2023-01-30T15:29:47.720Z,21.77
2023-01-30T15:32:34.843Z,22.52
2023-01-30T15:35:03.556Z,22.85
2023-01-30T15:37:37.897Z,19.52
2023-01-30T15:40:18.173Z,19.58
2023-01-30T15:43:02.040Z,15.32
2023-01-30T15:45:38.153Z,16.23
2023-01-30T15:48:14.231Z,14.00
2023-01-30T15:50:49.128Z,14.32
2023-01-30T15:53:17.042Z,15.38
2023-01-30T15:55:45.214Z,13.93
2023-01-30T15:58:19.510Z,19.25
2023-01-30T16:00:50.117Z,12.85
2023-01-30T16:03:21.737Z,13.43
2023-01-30T16:05:50.117Z,20.95
2023-01-30T16:08:21.724Z,18.92
2023-01-30T16:10:52.001Z,19.63
2023-01-30T16:13:21.138Z,17.83
2023-01-30T16:16:07.419Z,25.98
2023-01-30T16:18:57.514Z,20.70
2023-01-30T16:21:28.832Z,20.55
2023-01-30T16:23:55.500Z,25.88
2023-01-30T16:26:23.203Z,25.35
2023-01-30T16:28:58.091Z,26.63
2023-01-30T16:31:26.129Z,22.02
2023-01-30T16:33:53.195Z,37.72
2023-01-30T16:36:19.910Z,30.23
2023-01-30T16:38:49.102Z,33.95
2023-01-30T16:41:36.944Z,31.13
2023-01-30T16:44:23.229Z,29.23
2023-01-30T16:46:52.659Z,27.55
2023-01-30T16:49:24.866Z,34.45
2023-01-30T16:52:02.463Z,30.30
2023-01-30T16:54:31.343Z,28.67
2023-01-30T16:57:00.994Z,31.52
2023-01-30T16:59:33.638Z,27.38
2023-01-30T17:02:04.610Z,48.25
2023-01-30T17:04:34.200Z,38.67
2023-01-30T17:07:04.775Z,32.88
2023-01-30T17:09:40.790Z,24.42
2023-01-30T17:12:25.584Z,29.25
2023-01-30T17:15:14.469Z,26.17
2023-01-30T17:17:41.577Z,39.50
2023-01-30T17:20:09.332Z,31.08
2023-01-30T17:22:39.622Z,35.70
2023-01-30T17:25:17.998Z,28.80
2023-01-30T17:27:44.865Z,30.63
2023-01-30T17:30:16.082Z,36.83
2023-01-30T17:32:45.827Z,45.60
2023-01-30T17:35:12.992Z,39.65
2023-01-30T17:37:39.735Z,34.47
2023-01-30T17:40:17.387Z,33.67
2023-01-30T17:42:44.431Z,34.80
2023-01-30T17:45:11.838Z,37.92
2023-01-30T17:47:39.011Z,29.70
2023-01-30T17:50:06.141Z,27.20
2023-01-30T17:52:33.144Z,38.78
2023-01-30T17:54:59.902Z,28.33
2023-01-30T17:57:26.661Z,28.30
2023-01-30T17:59:55.282Z,34.92
2023-01-30T18:02:22.270Z,34.00
2023-01-30T18:04:49.032Z,39.30
2023-01-30T18:07:16.738Z,35.53
2023-01-30T18:09:43.508Z,41.30
2023-01-30T18:12:10.418Z,36.63
2023-01-30T18:14:38.274Z,34.42
2023-01-30T18:17:05.198Z,41.63
2023-01-30T18:19:32.073Z,51.72
2023-01-30T18:21:59.023Z,45.70
2023-01-30T18:24:26.163Z,49.08
2023-01-30T18:26:53.198Z,60.28
2023-01-30T18:29:20.165Z,50.80
2023-01-30T18:31:47.337Z,56.78
2023-01-30T18:34:14.345Z,54.42
2023-01-30T18:36:41.309Z,59.70
2023-01-30T18:39:08.204Z,60.65
2023-01-30T18:41:37.698Z,87.97
2023-01-30T18:44:06.747Z,35.17
2023-01-30T18:46:33.648Z,47.15
2023-01-30T18:49:00.945Z,41.22
2023-01-30T18:51:31.002Z,34.22
2023-01-30T18:53:58.678Z,26.10
2023-01-30T18:56:31.825Z,25.02
2023-01-30T18:59:04.483Z,21.02
2023-01-30T19:01:42.465Z,20.15
2023-01-30T19:04:11.548Z,18.10
2023-01-30T19:06:41.396Z,25.58
2023-01-30T19:09:11.988Z,37.65
2023-01-30T19:11:57.433Z,26.60
2023-01-30T19:14:24.295Z,23.40
2023-01-30T19:16:51.462Z,13.40
2023-01-30T19:19:18.514Z,21.98
2023-01-30T19:21:45.470Z,22.95
2023-01-30T19:24:15.154Z,18.35
2023-01-30T19:26:42.420Z,21.75
2023-01-30T19:29:09.851Z,19.38
2023-01-30T19:31:37.197Z,22.48
2023-01-30T19:34:06.374Z,20.58
2023-01-30T19:36:35.168Z,27.60
2023-01-30T19:39:03.684Z,26.10
2023-01-30T19:41:33.860Z,24.92
2023-01-30T19:44:02.612Z,31.02
2023-01-30T19:46:29.569Z,30.40
2023-01-30T19:48:57.164Z,33.25
2023-01-30T19:51:30.304Z,40.55
2023-01-30T19:53:59.732Z,45.28
2023-01-30T19:56:27.836Z,39.53
2023-01-30T19:58:57.459Z,33.20
2023-01-30T20:01:32.272Z,33.30
2023-01-30T20:03:59.634Z,31.42
2023-01-30T20:06:29.523Z,26.85
2023-01-30T20:09:02.202Z,32.38
2023-01-30T20:11:30.133Z,26.55
2023-01-30T20:13:58.583Z,25.48
2023-01-30T20:16:27.897Z,32.85
2023-01-30T20:18:58.124Z,32.53
2023-01-30T20:21:27.097Z,32.58
2023-01-30T20:26:23.780Z,26.05
2023-01-30T20:28:50.941Z,24.15
2023-01-30T20:31:21.212Z,27.02
2023-01-30T20:33:48.893Z,39.03
2023-01-30T20:36:22.182Z,34.97
2023-01-30T20:38:50.286Z,33.42
2023-01-30T20:41:22.143Z,29.08
2023-01-30T20:43:52.230Z,37.08
2023-01-30T20:46:23.317Z,35.53
2023-01-30T20:48:54.439Z,32.08
2023-01-30T20:51:24.943Z,32.83
2023-01-30T20:53:53.528Z,41.60
2023-01-30T20:56:21.761Z,54.80
2023-01-30T20:58:49.815Z,52.10
2023-01-30T21:01:19.664Z,46.60
2023-01-30T21:03:49.627Z,37.38
2023-01-30T21:06:41.532Z,40.92
2023-01-30T21:09:06.573Z,26.52
2023-01-30T21:11:34.120Z,19.50
2023-01-30T21:14:01.208Z,14.73
2023-01-30T21:16:30.978Z,22.27
2023-01-30T21:19:04.203Z,17.77
2023-01-30T21:21:34.105Z,19.13
2023-01-30T21:24:05.002Z,18.52
2023-01-30T21:26:35.864Z,20.40
2023-01-30T21:29:06.850Z,18.30
2023-01-30T21:31:37.181Z,20.75
2023-01-30T21:34:05.356Z,22.75
2023-01-30T21:36:32.510Z,17.20
2023-01-30T21:39:18.425Z,14.98
2023-01-30T21:42:12.621Z,25.15
2023-01-30T21:44:40.986Z,15.85
2023-01-30T21:47:08.259Z,12.55
2023-01-30T21:49:36.714Z,11.48
2023-01-30T21:52:04.309Z,19.83
2023-01-30T21:54:31.339Z,21.02
2023-01-30T21:56:58.288Z,19.42
2023-01-30T21:59:25.332Z,21.52
2023-01-30T22:01:52.218Z,15.35
2023-01-30T22:04:19.700Z,17.38
2023-01-30T22:06:46.538Z,21.75
2023-01-30T22:09:15.230Z,21.08
2023-01-30T22:11:42.397Z,22.85
2023-01-30T22:14:09.567Z,28.33
2023-01-30T22:16:36.567Z,29.55
2023-01-30T22:19:04.848Z,17.60
2023-01-30T22:21:36.308Z,18.45
2023-01-30T22:24:05.851Z,14.50
2023-01-30T22:26:34.089Z,18.50
2023-01-30T22:29:02.858Z,15.07
2023-01-30T22:31:34.458Z,14.48
2023-01-30T22:34:03.405Z,11.18
2023-01-30T22:36:32.267Z,13.18
2023-01-30T22:38:59.371Z,14.48
2023-01-30T22:41:27.942Z,16.85
2023-01-30T22:43:57.540Z,21.92
2023-01-30T22:46:28.151Z,21.15
2023-01-30T22:48:55.399Z,22.50
2023-01-30T22:51:25.043Z,20.52
2023-01-30T22:53:56.199Z,22.38
2023-01-30T22:58:51.952Z,16.15
2023-01-30T23:01:21.561Z,15.75
2023-01-30T23:03:52.969Z,21.40
2023-01-30T23:06:20.158Z,15.95
2023-01-30T23:08:48.564Z,15.93
2023-01-30T23:11:20.768Z,15.68
2023-01-30T23:13:50.247Z,23.00
2023-01-30T23:16:20.389Z,24.95
2023-01-30T23:18:56.782Z,23.80
2023-01-30T23:21:24.801Z,16.92
2023-01-30T23:23:54.009Z,18.58
2023-01-30T23:26:22.533Z,15.98
2023-01-30T23:28:49.719Z,16.98
2023-01-30T23:31:20.197Z,12.60
2023-01-30T23:33:47.525Z,14.98
2023-01-30T23:36:15.025Z,9.23
2023-01-30T23:38:41.880Z,12.45
2023-01-30T23:41:13.831Z,11.02
2023-01-30T23:43:42.663Z,9.07
2023-01-30T23:46:30.974Z,9.70
2023-01-30T23:49:02.439Z,13.23
2023-01-30T23:51:31.566Z,11.25
2023-01-30T23:53:58.960Z,6.68
2023-01-30T23:56:27.958Z,10.50
2023-01-30T23:58:55.238Z,11.30
